sensor_id;sensor_type;location;lat;lon;timestamp;pressure;altitude;pressure_sealevel;temperature;humidity
7940;BME280;4015;48.888;9.226;2023-03-02T00:01:52;155926.25;;;2.68;73.35
7940;BME280;4015;48.888;9.226;2023-03-02T00:04:25;155945.28;;;2.76;72.88
7940;BME280;4015;48.888;9.226;2023-03-02T00:06:54;155930.06;;;2.69;73.44
7940;BME280;4015;48.888;9.226;2023-03-02T00:09:22;155909.72;;;2.61;73.63
7940;BME280;4015;48.888;9.226;2023-03-02T00:11:47;155933.91;;;2.71;73.14
7940;BME280;4015;48.888;9.226;2023-03-02T00:14:13;155879.25;;;2.49;74.12
7940;BME280;4015;48.888;9.226;2023-03-02T00:16:38;155886.91;;;2.52;74.40
7940;BME280;4015;48.888;9.226;2023-03-02T00:19:04;155889.44;;;2.53;74.50
7940;BME280;4015;48.888;9.226;2023-03-02T00:21:30;155884.31;;;2.51;74.36
7940;BME280;4015;48.888;9.226;2023-03-02T00:23:56;155916.06;;;2.64;74.04
7940;BME280;4015;48.888;9.226;2023-03-02T00:26:21;155914.81;;;2.63;73.73
7940;BME280;4015;48.888;9.226;2023-03-02T00:28:46;155895.75;;;2.56;74.38
7940;BME280;4015;48.888;9.226;2023-03-02T00:31:12;155886.91;;;2.52;73.76
7940;BME280;4015;48.888;9.226;2023-03-02T00:33:37;155852.56;;;2.38;74.34
7940;BME280;4015;48.888;9.226;2023-03-02T00:36:02;155843.69;;;2.35;74.82
7940;BME280;4015;48.888;9.226;2023-03-02T00:38:28;155856.41;;;2.40;74.82
7940;BME280;4015;48.888;9.226;2023-03-02T00:40:54;155861.47;;;2.42;74.62
7940;BME280;4015;48.888;9.226;2023-03-02T00:43:20;155879.25;;;2.49;73.88
7940;BME280;4015;48.888;9.226;2023-03-02T00:45:51;155884.31;;;2.51;74.43
7940;BME280;4015;48.888;9.226;2023-03-02T00:48:16;155914.81;;;2.63;73.77
7940;BME280;4015;48.888;9.226;2023-03-02T00:50:42;155884.31;;;2.51;74.71
7940;BME280;4015;48.888;9.226;2023-03-02T00:53:07;155912.28;;;2.62;73.98
7940;BME280;4015;48.888;9.226;2023-03-02T00:55:36;155889.44;;;2.53;73.82
7940;BME280;4015;48.888;9.226;2023-03-02T00:58:03;155855.13;;;2.39;74.79
7940;BME280;4015;48.888;9.226;2023-03-02T01:00:29;155824.66;;;2.27;74.89
7940;BME280;4015;48.888;9.226;2023-03-02T01:02:56;155822.06;;;2.26;75.32
7940;BME280;4015;48.888;9.226;2023-03-02T01:05:21;155837.31;;;2.32;75.11
7940;BME280;4015;48.888;9.226;2023-03-02T01:07:46;155833.50;;;2.31;74.75
7940;BME280;4015;48.888;9.226;2023-03-02T01:10:12;155830.97;;;2.30;74.80
7940;BME280;4015;48.888;9.226;2023-03-02T01:12:38;155825.91;;;2.28;75.16
7940;BME280;4015;48.888;9.226;2023-03-02T01:15:05;155827.19;;;2.28;75.12
7940;BME280;4015;48.888;9.226;2023-03-02T01:17:31;155815.72;;;2.24;75.51
7940;BME280;4015;48.888;9.226;2023-03-02T01:19:56;155806.88;;;2.20;75.08
7940;BME280;4015;48.888;9.226;2023-03-02T01:22:21;155801.75;;;2.18;75.58
7940;BME280;4015;48.888;9.226;2023-03-02T01:24:47;155805.56;;;2.20;74.70
7940;BME280;4015;48.888;9.226;2023-03-02T01:27:13;155814.47;;;2.23;75.37
7940;BME280;4015;48.888;9.226;2023-03-02T01:29:38;155814.47;;;2.23;74.69
7940;BME280;4015;48.888;9.226;2023-03-02T01:32:04;155822.06;;;2.26;74.84
7940;BME280;4015;48.888;9.226;2023-03-02T01:34:29;155823.38;;;2.27;75.15
7940;BME280;4015;48.888;9.226;2023-03-02T01:36:55;155836.03;;;2.32;74.79
7940;BME280;4015;48.888;9.226;2023-03-02T01:39:20;155830.97;;;2.30;74.90
7940;BME280;4015;48.888;9.226;2023-03-02T01:41:47;155808.13;;;2.21;74.95
7940;BME280;4015;48.888;9.226;2023-03-02T01:44:39;155847.50;;;2.36;74.92
7940;BME280;4015;48.888;9.226;2023-03-02T01:49:40;155828.44;;;2.29;74.40
7940;BME280;4015;48.888;9.226;2023-03-02T01:52:07;155843.69;;;2.35;74.52
7940;BME280;4015;48.888;9.226;2023-03-02T01:54:34;155819.53;;;2.25;74.36
7940;BME280;4015;48.888;9.226;2023-03-02T01:57:02;155852.56;;;2.38;74.23
7940;BME280;4015;48.888;9.226;2023-03-02T01:59:30;155828.44;;;2.29;74.62
7940;BME280;4015;48.888;9.226;2023-03-02T02:01:59;155803.03;;;2.19;75.08
7940;BME280;4015;48.888;9.226;2023-03-02T02:04:27;155785.25;;;2.11;75.27
7940;BME280;4015;48.888;9.226;2023-03-02T02:07:00;155776.41;;;2.08;75.41
7940;BME280;4015;48.888;9.226;2023-03-02T02:09:29;155770.00;;;2.05;75.12
7940;BME280;4015;48.888;9.226;2023-03-02T02:11:56;155744.66;;;1.95;75.53
7940;BME280;4015;48.888;9.226;2023-03-02T02:14:22;155757.31;;;2.00;75.36
7940;BME280;4015;48.888;9.226;2023-03-02T02:16:48;155789.06;;;2.13;74.99
7940;BME280;4015;48.888;9.226;2023-03-02T02:19:27;155734.47;;;1.91;76.13
7940;BME280;4015;48.888;9.226;2023-03-02T02:21:55;155726.81;;;1.88;75.61
7940;BME280;4015;48.888;9.226;2023-03-02T02:24:43;155704.00;;;1.79;76.60
7940;BME280;4015;48.888;9.226;2023-03-02T02:27:11;155719.22;;;1.85;75.76
7940;BME280;4015;48.888;9.226;2023-03-02T02:29:40;155686.22;;;1.72;76.47
7940;BME280;4015;48.888;9.226;2023-03-02T02:32:14;155690.03;;;1.73;76.66
7940;BME280;4015;48.888;9.226;2023-03-02T02:34:48;155672.25;;;1.66;77.21
7940;BME280;4015;48.888;9.226;2023-03-02T02:37:26;155649.38;;;1.57;77.32
7940;BME280;4015;48.888;9.226;2023-03-02T02:39:53;155672.25;;;1.66;77.08
7940;BME280;4015;48.888;9.226;2023-03-02T02:42:31;155660.81;;;1.61;77.27
7940;BME280;4015;48.888;9.226;2023-03-02T02:45:01;155660.81;;;1.61;77.35
7940;BME280;4015;48.888;9.226;2023-03-02T02:47:27;155650.69;;;1.57;77.49
7940;BME280;4015;48.888;9.226;2023-03-02T02:49:53;155657.03;;;1.60;77.03
7940;BME280;4015;48.888;9.226;2023-03-02T02:52:21;155648.13;;;1.56;77.31
7940;BME280;4015;48.888;9.226;2023-03-02T02:54:52;155646.84;;;1.56;77.20
7940;BME280;4015;48.888;9.226;2023-03-02T02:57:18;155631.63;;;1.50;77.51
7940;BME280;4015;48.888;9.226;2023-03-02T02:59:50;155610.06;;;1.41;77.63
7940;BME280;4015;48.888;9.226;2023-03-02T03:02:20;155625.28;;;1.47;77.75
7940;BME280;4015;48.888;9.226;2023-03-02T03:04:46;155621.50;;;1.46;77.83
7940;BME280;4015;48.888;9.226;2023-03-02T03:07:19;155610.06;;;1.41;77.54
7940;BME280;4015;48.888;9.226;2023-03-02T03:09:47;155591.03;;;1.33;77.74
7940;BME280;4015;48.888;9.226;2023-03-02T03:12:20;155552.91;;;1.18;78.18
7940;BME280;4015;48.888;9.226;2023-03-02T03:14:46;155574.53;;;1.27;77.75
7940;BME280;4015;48.888;9.226;2023-03-02T03:17:12;155572.00;;;1.26;78.22
7940;BME280;4015;48.888;9.226;2023-03-02T03:19:41;155563.09;;;1.22;78.10
7940;BME280;4015;48.888;9.226;2023-03-02T03:22:08;155541.53;;;1.14;78.30
7940;BME280;4015;48.888;9.226;2023-03-02T03:24:36;155535.16;;;1.11;78.68
7940;BME280;4015;48.888;9.226;2023-03-02T03:27:02;155546.59;;;1.16;78.29
7940;BME280;4015;48.888;9.226;2023-03-02T03:29:30;155517.41;;;1.04;79.10
7940;BME280;4015;48.888;9.226;2023-03-02T03:31:57;155525.03;;;1.07;79.07
7940;BME280;4015;48.888;9.226;2023-03-02T03:34:24;155538.97;;;1.13;78.70
7940;BME280;4015;48.888;9.226;2023-03-02T03:36:49;155554.19;;;1.19;78.08
7940;BME280;4015;48.888;9.226;2023-03-02T03:39:16;155550.38;;;1.17;77.95
7940;BME280;4015;48.888;9.226;2023-03-02T03:41:41;155547.84;;;1.16;78.39
7940;BME280;4015;48.888;9.226;2023-03-02T03:44:07;155521.19;;;1.05;79.10
7940;BME280;4015;48.888;9.226;2023-03-02T03:46:33;155532.63;;;1.10;79.19
7940;BME280;4015;48.888;9.226;2023-03-02T03:48:59;155551.66;;;1.18;78.58
7940;BME280;4015;48.888;9.226;2023-03-02T03:51:24;155526.31;;;1.07;79.10
7940;BME280;4015;48.888;9.226;2023-03-02T03:53:50;155528.84;;;1.08;78.84
7940;BME280;4015;48.888;9.226;2023-03-02T03:56:28;155526.31;;;1.07;79.03
7940;BME280;4015;48.888;9.226;2023-03-02T03:58:55;155526.31;;;1.07;78.97
7940;BME280;4015;48.888;9.226;2023-03-02T04:04:08;155509.81;;;1.01;79.42
7940;BME280;4015;48.888;9.226;2023-03-02T04:06:33;155498.38;;;0.96;79.28
7940;BME280;4015;48.888;9.226;2023-03-02T04:08:59;155502.16;;;0.98;79.86
7940;BME280;4015;48.888;9.226;2023-03-02T04:11:30;155485.69;;;0.91;79.85
7940;BME280;4015;48.888;9.226;2023-03-02T04:13:56;155480.63;;;0.89;79.55
7940;BME280;4015;48.888;9.226;2023-03-02T04:16:21;155478.09;;;0.88;79.29
7940;BME280;4015;48.888;9.226;2023-03-02T04:18:47;155478.09;;;0.88;79.59
7940;BME280;4015;48.888;9.226;2023-03-02T04:21:12;155479.34;;;0.89;79.51
7940;BME280;4015;48.888;9.226;2023-03-02T04:23:37;155475.50;;;0.87;79.63
7940;BME280;4015;48.888;9.226;2023-03-02T04:26:03;155497.09;;;0.96;79.63
7940;BME280;4015;48.888;9.226;2023-03-02T04:28:30;155446.31;;;0.75;79.86
7940;BME280;4015;48.888;9.226;2023-03-02T04:30:55;155440.00;;;0.73;80.00
7940;BME280;4015;48.888;9.226;2023-03-02T04:33:21;155442.53;;;0.74;80.11
7940;BME280;4015;48.888;9.226;2023-03-02T04:35:46;155437.47;;;0.72;79.79
7940;BME280;4015;48.888;9.226;2023-03-02T04:38:11;155424.78;;;0.67;80.34
7940;BME280;4015;48.888;9.226;2023-03-02T04:40:37;155408.28;;;0.60;80.41
7940;BME280;4015;48.888;9.226;2023-03-02T04:43:02;155424.78;;;0.67;80.67
7940;BME280;4015;48.888;9.226;2023-03-02T04:45:28;155424.78;;;0.67;80.19
7940;BME280;4015;48.888;9.226;2023-03-02T04:47:53;155396.84;;;0.56;80.91
7940;BME280;4015;48.888;9.226;2023-03-02T04:50:18;155409.56;;;0.61;80.44
7940;BME280;4015;48.888;9.226;2023-03-02T04:52:43;155431.16;;;0.69;80.18
7940;BME280;4015;48.888;9.226;2023-03-02T04:55:17;155418.44;;;0.64;80.10
7940;BME280;4015;48.888;9.226;2023-03-02T04:57:42;155385.47;;;0.51;81.03
7940;BME280;4015;48.888;9.226;2023-03-02T05:00:08;155396.84;;;0.56;80.46
7940;BME280;4015;48.888;9.226;2023-03-02T05:02:34;155405.75;;;0.59;79.99
7940;BME280;4015;48.888;9.226;2023-03-02T05:04:59;155388.00;;;0.52;80.52
7940;BME280;4015;48.888;9.226;2023-03-02T05:07:24;155379.09;;;0.48;80.80
7940;BME280;4015;48.888;9.226;2023-03-02T05:09:49;155377.84;;;0.48;81.26
7940;BME280;4015;48.888;9.226;2023-03-02T05:12:15;155379.09;;;0.48;81.17
7940;BME280;4015;48.888;9.226;2023-03-02T05:14:43;155389.28;;;0.52;81.10
7940;BME280;4015;48.888;9.226;2023-03-02T05:17:08;155382.91;;;0.50;81.35
7940;BME280;4015;48.888;9.226;2023-03-02T05:19:33;155360.09;;;0.41;81.15
7940;BME280;4015;48.888;9.226;2023-03-02T05:21:59;155343.59;;;0.34;81.23
7940;BME280;4015;48.888;9.226;2023-03-02T05:24:24;155367.66;;;0.44;81.05
7940;BME280;4015;48.888;9.226;2023-03-02T05:26:50;155356.28;;;0.39;81.06
7940;BME280;4015;48.888;9.226;2023-03-02T05:29:15;155358.81;;;0.40;81.67
7940;BME280;4015;48.888;9.226;2023-03-02T05:31:43;155346.13;;;0.35;81.38
7940;BME280;4015;48.888;9.226;2023-03-02T05:34:11;155343.59;;;0.34;81.60
7940;BME280;4015;48.888;9.226;2023-03-02T05:36:37;155355.03;;;0.39;80.83
7940;BME280;4015;48.888;9.226;2023-03-02T05:39:04;155347.41;;;0.36;81.33
7940;BME280;4015;48.888;9.226;2023-03-02T05:41:29;155342.34;;;0.34;81.51
7940;BME280;4015;48.888;9.226;2023-03-02T05:43:55;155346.13;;;0.35;81.35
7940;BME280;4015;48.888;9.226;2023-03-02T05:46:21;155352.44;;;0.38;81.34
7940;BME280;4015;48.888;9.226;2023-03-02T05:48:46;155342.34;;;0.34;81.39
7940;BME280;4015;48.888;9.226;2023-03-02T05:51:12;155339.81;;;0.33;82.05
7940;BME280;4015;48.888;9.226;2023-03-02T05:53:37;155353.75;;;0.38;81.45
7940;BME280;4015;48.888;9.226;2023-03-02T05:56:03;155349.91;;;0.37;81.48
7940;BME280;4015;48.888;9.226;2023-03-02T05:58:28;155352.44;;;0.38;81.08
7940;BME280;4015;48.888;9.226;2023-03-02T06:00:54;155347.41;;;0.36;81.98
7940;BME280;4015;48.888;9.226;2023-03-02T06:03:19;155355.03;;;0.39;81.68
7940;BME280;4015;48.888;9.226;2023-03-02T06:05:45;155352.44;;;0.38;81.73
7940;BME280;4015;48.888;9.226;2023-03-02T06:08:15;155370.25;;;0.45;81.54
7940;BME280;4015;48.888;9.226;2023-03-02T06:10:41;155360.09;;;0.41;81.40
7940;BME280;4015;48.888;9.226;2023-03-02T06:13:07;155343.59;;;0.34;81.78
7940;BME280;4015;48.888;9.226;2023-03-02T06:15:32;155346.13;;;0.35;81.71
7940;BME280;4015;48.888;9.226;2023-03-02T06:17:58;155358.81;;;0.40;81.31
7940;BME280;4015;48.888;9.226;2023-03-02T06:20:23;155365.13;;;0.43;81.77
7940;BME280;4015;48.888;9.226;2023-03-02T06:22:48;155393.06;;;0.54;81.36
7940;BME280;4015;48.888;9.226;2023-03-02T06:25:20;155405.75;;;0.59;80.86
7940;BME280;4015;48.888;9.226;2023-03-02T06:27:47;155412.06;;;0.62;81.14
7940;BME280;4015;48.888;9.226;2023-03-02T06:30:16;155437.47;;;0.72;80.91
7940;BME280;4015;48.888;9.226;2023-03-02T06:32:42;155465.38;;;0.83;80.50
7940;BME280;4015;48.888;9.226;2023-03-02T06:35:09;155489.47;;;0.93;80.23
7940;BME280;4015;48.888;9.226;2023-03-02T06:37:35;155523.72;;;1.06;80.09
7940;BME280;4015;48.888;9.226;2023-03-02T06:40:00;155517.41;;;1.04;80.18
7940;BME280;4015;48.888;9.226;2023-03-02T06:42:26;155546.59;;;1.16;80.08
7940;BME280;4015;48.888;9.226;2023-03-02T06:44:52;155517.41;;;1.04;79.93
7940;BME280;4015;48.888;9.226;2023-03-02T06:47:20;155547.84;;;1.16;79.46
7940;BME280;4015;48.888;9.226;2023-03-02T06:49:45;155569.41;;;1.25;79.43
7940;BME280;4015;48.888;9.226;2023-03-02T06:52:11;155570.69;;;1.25;78.80
7940;BME280;4015;48.888;9.226;2023-03-02T06:54:37;155578.31;;;1.28;79.55
7940;BME280;4015;48.888;9.226;2023-03-02T06:57:03;155620.22;;;1.45;78.75
7940;BME280;4015;48.888;9.226;2023-03-02T06:59:28;155631.63;;;1.50;78.08
7940;BME280;4015;48.888;9.226;2023-03-02T07:01:54;155641.78;;;1.54;78.53
7940;BME280;4015;48.888;9.226;2023-03-02T07:04:19;155704.00;;;1.79;77.36
7940;BME280;4015;48.888;9.226;2023-03-02T07:06:44;155725.56;;;1.87;77.03
7940;BME280;4015;48.888;9.226;2023-03-02T07:09:10;155766.22;;;2.04;76.65
7940;BME280;4015;48.888;9.226;2023-03-02T07:11:35;155806.88;;;2.20;76.43
7940;BME280;4015;48.888;9.226;2023-03-02T07:14:01;155856.41;;;2.40;75.09
7940;BME280;4015;48.888;9.226;2023-03-02T07:16:26;155950.41;;;2.78;74.07
7940;BME280;4015;48.888;9.226;2023-03-02T07:18:53;156007.56;;;3.01;72.98
7940;BME280;4015;48.888;9.226;2023-03-02T07:21:18;155993.56;;;2.95;72.95
7940;BME280;4015;48.888;9.226;2023-03-02T07:23:43;155987.25;;;2.92;73.30
7940;BME280;4015;48.888;9.226;2023-03-02T07:26:09;156002.50;;;2.98;72.92
7940;BME280;4015;48.888;9.226;2023-03-02T07:28:39;156108.00;;;3.41;72.71
7940;BME280;4015;48.888;9.226;2023-03-02T07:31:06;156210.94;;;3.82;70.85
7940;BME280;4015;48.888;9.226;2023-03-02T07:33:32;156301.25;;;4.18;69.12
7940;BME280;4015;48.888;9.226;2023-03-02T07:35:57;156423.38;;;4.67;68.14
7940;BME280;4015;48.888;9.226;2023-03-02T07:38:23;156474.28;;;4.87;67.11
7940;BME280;4015;48.888;9.226;2023-03-02T07:40:48;156436.13;;;4.72;67.24
7940;BME280;4015;48.888;9.226;2023-03-02T07:43:14;156368.66;;;4.45;68.10
7940;BME280;4015;48.888;9.226;2023-03-02T07:45:39;156355.97;;;4.40;68.38
7940;BME280;4015;48.888;9.226;2023-03-02T07:48:05;156278.38;;;4.09;69.14
7940;BME280;4015;48.888;9.226;2023-03-02T07:50:31;156293.66;;;4.15;69.75
7940;BME280;4015;48.888;9.226;2023-03-02T07:52:57;156274.53;;;4.07;70.33
7940;BME280;4015;48.888;9.226;2023-03-02T07:55:22;156254.19;;;3.99;70.54
7940;BME280;4015;48.888;9.226;2023-03-02T07:57:48;156313.97;;;4.23;69.92
7940;BME280;4015;48.888;9.226;2023-03-02T08:00:14;156361.03;;;4.42;69.51
7940;BME280;4015;48.888;9.226;2023-03-02T08:02:40;156518.81;;;5.05;68.00
7940;BME280;4015;48.888;9.226;2023-03-02T08:05:06;156773.47;;;6.07;65.99
7940;BME280;4015;48.888;9.226;2023-03-02T08:07:32;156998.94;;;6.97;63.28
7940;BME280;4015;48.888;9.226;2023-03-02T08:09:58;157362.41;;;8.43;59.07
7940;BME280;4015;48.888;9.226;2023-03-02T08:12:25;157728.66;;;9.89;55.63
7940;BME280;4015;48.888;9.226;2023-03-02T08:14:50;157804.00;;;10.19;53.64
7940;BME280;4015;48.888;9.226;2023-03-02T08:17:16;158025.03;;;11.07;52.00
7940;BME280;4015;48.888;9.226;2023-03-02T08:19:41;157943.25;;;10.74;51.65
7940;BME280;4015;48.888;9.226;2023-03-02T08:22:06;158134.94;;;11.51;50.80
7940;BME280;4015;48.888;9.226;2023-03-02T08:24:32;158000.75;;;10.97;51.27
7940;BME280;4015;48.888;9.226;2023-03-02T08:27:01;158103.00;;;11.38;50.68
7940;BME280;4015;48.888;9.226;2023-03-02T08:29:27;158186.06;;;11.71;50.53
7940;BME280;4015;48.888;9.226;2023-03-02T08:31:52;158173.28;;;11.66;50.85
7940;BME280;4015;48.888;9.226;2023-03-02T08:34:17;158165.63;;;11.63;51.12
7940;BME280;4015;48.888;9.226;2023-03-02T08:36:43;158365.09;;;12.42;48.95
7940;BME280;4015;48.888;9.226;2023-03-02T08:39:09;158526.25;;;13.07;48.58
7940;BME280;4015;48.888;9.226;2023-03-02T08:41:35;158613.34;;;13.41;47.64
7940;BME280;4015;48.888;9.226;2023-03-02T08:44:00;158655.59;;;13.58;47.29
7940;BME280;4015;48.888;9.226;2023-03-02T08:46:26;158605.63;;;13.38;47.24
7940;BME280;4015;48.888;9.226;2023-03-02T08:48:51;158623.59;;;13.45;47.35
7940;BME280;4015;48.888;9.226;2023-03-02T08:51:21;158713.16;;;13.81;46.38
7940;BME280;4015;48.888;9.226;2023-03-02T08:53:49;158974.41;;;14.85;45.59
7940;BME280;4015;48.888;9.226;2023-03-02T08:58:44;158866.78;;;14.42;44.95
7940;BME280;4015;48.888;9.226;2023-03-02T09:01:15;158848.88;;;14.35;44.96
7940;BME280;4015;48.888;9.226;2023-03-02T09:03:41;158878.38;;;14.47;44.76
7940;BME280;4015;48.888;9.226;2023-03-02T09:06:06;158930.84;;;14.68;44.27
7940;BME280;4015;48.888;9.226;2023-03-02T09:08:31;159023.06;;;15.04;43.57
7940;BME280;4015;48.888;9.226;2023-03-02T09:10:57;158934.69;;;14.69;43.50
7940;BME280;4015;48.888;9.226;2023-03-02T09:13:22;158824.50;;;14.25;46.43
7940;BME280;4015;48.888;9.226;2023-03-02T09:15:47;158930.84;;;14.68;44.84
7940;BME280;4015;48.888;9.226;2023-03-02T09:18:13;158900.13;;;14.55;43.85
7940;BME280;4015;48.888;9.226;2023-03-02T09:20:38;159075.59;;;15.25;44.22
7940;BME280;4015;48.888;9.226;2023-03-02T09:23:03;158991.06;;;14.92;44.56
7940;BME280;4015;48.888;9.226;2023-03-02T09:25:29;159066.66;;;15.22;44.23
7940;BME280;4015;48.888;9.226;2023-03-02T09:27:54;159197.38;;;15.74;42.87
7940;BME280;4015;48.888;9.226;2023-03-02T09:30:20;159392.19;;;16.51;41.90
7940;BME280;4015;48.888;9.226;2023-03-02T09:32:45;159343.47;;;16.32;41.60
7940;BME280;4015;48.888;9.226;2023-03-02T09:35:10;159161.44;;;15.59;43.00
7940;BME280;4015;48.888;9.226;2023-03-02T09:37:36;159274.25;;;16.04;42.83
7940;BME280;4015;48.888;9.226;2023-03-02T09:40:03;159383.22;;;16.48;41.92
7940;BME280;4015;48.888;9.226;2023-03-02T09:51:32;159837.34;;;18.28;38.30
7940;BME280;4015;48.888;9.226;2023-03-02T09:54:03;159798.88;;;18.13;40.50
7940;BME280;4015;48.888;9.226;2023-03-02T09:56:35;159782.19;;;18.06;39.10
7940;BME280;4015;48.888;9.226;2023-03-02T09:59:12;160045.34;;;19.10;38.91
7940;BME280;4015;48.888;9.226;2023-03-02T10:01:47;159725.72;;;17.84;39.45
7940;BME280;4015;48.888;9.226;2023-03-02T10:04:17;160137.78;;;19.47;37.06
7940;BME280;4015;48.888;9.226;2023-03-02T10:06:45;160462.94;;;20.76;35.13
7940;BME280;4015;48.888;9.226;2023-03-02T10:09:10;160270.16;;;20.00;36.89
7940;BME280;4015;48.888;9.226;2023-03-02T10:14:28;160308.69;;;20.15;36.61
7940;BME280;4015;48.888;9.226;2023-03-02T10:19:29;160274.00;;;20.01;36.60
7940;BME280;4015;48.888;9.226;2023-03-02T10:22:07;160258.59;;;19.95;36.80
7940;BME280;4015;48.888;9.226;2023-03-02T10:24:40;160507.91;;;20.94;35.54
7940;BME280;4015;48.888;9.226;2023-03-02T10:29:58;160208.50;;;19.75;36.40
7940;BME280;4015;48.888;9.226;2023-03-02T10:32:35;160412.81;;;20.56;36.38
7940;BME280;4015;48.888;9.226;2023-03-02T10:35:12;160388.38;;;20.46;37.37
7940;BME280;4015;48.888;9.226;2023-03-02T10:37:38;160315.09;;;20.17;36.83
7940;BME280;4015;48.888;9.226;2023-03-02T10:40:04;160594.00;;;21.28;35.25
7940;BME280;4015;48.888;9.226;2023-03-02T10:42:33;160525.91;;;21.01;36.04
7940;BME280;4015;48.888;9.226;2023-03-02T10:45:10;160541.31;;;21.07;34.61
7940;BME280;4015;48.888;9.226;2023-03-02T10:47:43;160519.44;;;20.98;35.82
7940;BME280;4015;48.888;9.226;2023-03-02T10:50:21;160394.84;;;20.49;34.98
7940;BME280;4015;48.888;9.226;2023-03-02T10:52:48;160371.63;;;20.40;35.58
7940;BME280;4015;48.888;9.226;2023-03-02T10:55:15;160826.84;;;22.20;34.20
7940;BME280;4015;48.888;9.226;2023-03-02T10:57:45;160833.25;;;22.23;34.54
7940;BME280;4015;48.888;9.226;2023-03-02T11:00:23;160923.28;;;22.58;33.81
7940;BME280;4015;48.888;9.226;2023-03-02T11:08:30;160956.72;;;22.72;33.07
7940;BME280;4015;48.888;9.226;2023-03-02T11:11:02;160851.25;;;22.30;33.67
7940;BME280;4015;48.888;9.226;2023-03-02T11:13:34;161015.97;;;22.95;34.00
7940;BME280;4015;48.888;9.226;2023-03-02T11:16:19;160840.97;;;22.26;34.91
7940;BME280;4015;48.888;9.226;2023-03-02T11:18:51;160790.75;;;22.06;33.83
7940;BME280;4015;48.888;9.226;2023-03-02T11:24:20;160866.69;;;22.36;34.10
7940;BME280;4015;48.888;9.226;2023-03-02T11:26:48;160958.00;;;22.72;33.73
7940;BME280;4015;48.888;9.226;2023-03-02T11:29:38;161090.56;;;23.25;33.61
7940;BME280;4015;48.888;9.226;2023-03-02T11:32:21;161124.00;;;23.38;32.82
7940;BME280;4015;48.888;9.226;2023-03-02T11:37:29;160563.16;;;21.16;34.31
7940;BME280;4015;48.888;9.226;2023-03-02T11:42:42;160532.31;;;21.04;35.37
7940;BME280;4015;48.888;9.226;2023-03-02T11:45:21;160748.34;;;21.89;33.89
7940;BME280;4015;48.888;9.226;2023-03-02T11:47:59;160686.63;;;21.65;34.45
7940;BME280;4015;48.888;9.226;2023-03-02T11:50:26;160973.44;;;22.78;33.77
7940;BME280;4015;48.888;9.226;2023-03-02T11:52:57;160897.56;;;22.48;33.44
7940;BME280;4015;48.888;9.226;2023-03-02T11:55:25;160824.28;;;22.19;34.39
7940;BME280;4015;48.888;9.226;2023-03-02T11:57:54;160624.91;;;21.40;34.74
7940;BME280;4015;48.888;9.226;2023-03-02T12:00:36;160718.75;;;21.77;35.00
7940;BME280;4015;48.888;9.226;2023-03-02T12:03:06;160979.88;;;22.81;33.89
7940;BME280;4015;48.888;9.226;2023-03-02T12:05:38;160891.13;;;22.46;33.51
7940;BME280;4015;48.888;9.226;2023-03-02T12:08:05;160587.59;;;21.25;35.92
7940;BME280;4015;48.888;9.226;2023-03-02T12:10:41;160739.31;;;21.86;34.66
7940;BME280;4015;48.888;9.226;2023-03-02T12:13:20;161000.53;;;22.89;33.63
7940;BME280;4015;48.888;9.226;2023-03-02T12:15:49;160988.88;;;22.84;33.71
7940;BME280;4015;48.888;9.226;2023-03-02T12:23:24;160947.72;;;22.68;34.41
7940;BME280;4015;48.888;9.226;2023-03-02T12:28:39;160964.44;;;22.75;33.94
7940;BME280;4015;48.888;9.226;2023-03-02T12:31:10;160640.34;;;21.46;34.50
7940;BME280;4015;48.888;9.226;2023-03-02T12:33:48;160780.50;;;22.02;34.38
7940;BME280;4015;48.888;9.226;2023-03-02T12:36:18;160907.84;;;22.52;34.43
7940;BME280;4015;48.888;9.226;2023-03-02T12:45:10;161008.22;;;22.92;33.60
7940;BME280;4015;48.888;9.226;2023-03-02T12:47:40;161310.69;;;24.12;33.29
7940;BME280;4015;48.888;9.226;2023-03-02T12:50:25;161133.03;;;23.41;33.35
7940;BME280;4015;48.888;9.226;2023-03-02T12:53:02;160995.34;;;22.87;33.45
7940;BME280;4015;48.888;9.226;2023-03-02T12:55:28;161098.31;;;23.28;33.27
7940;BME280;4015;48.888;9.226;2023-03-02T12:57:57;160920.72;;;22.57;33.38
7940;BME280;4015;48.888;9.226;2023-03-02T13:00:26;160895.00;;;22.47;34.05
7940;BME280;4015;48.888;9.226;2023-03-02T13:02:54;160936.16;;;22.64;34.00
7940;BME280;4015;48.888;9.226;2023-03-02T13:05:31;160794.63;;;22.07;34.52
7940;BME280;4015;48.888;9.226;2023-03-02T13:08:04;160898.84;;;22.49;34.17
7940;BME280;4015;48.888;9.226;2023-03-02T13:13:02;160594.00;;;21.28;35.37
7940;BME280;4015;48.888;9.226;2023-03-02T13:15:28;160628.75;;;21.42;34.88
7940;BME280;4015;48.888;9.226;2023-03-02T13:17:56;160453.91;;;20.72;36.10
7940;BME280;4015;48.888;9.226;2023-03-02T13:20:27;160579.84;;;21.22;36.08
7940;BME280;4015;48.888;9.226;2023-03-02T13:22:53;160528.47;;;21.02;36.32
7940;BME280;4015;48.888;9.226;2023-03-02T13:25:25;160504.03;;;20.92;36.15
7940;BME280;4015;48.888;9.226;2023-03-02T13:27:53;160247.00;;;19.90;36.49
7940;BME280;4015;48.888;9.226;2023-03-02T13:30:27;160272.72;;;20.01;36.61
7940;BME280;4015;48.888;9.226;2023-03-02T13:32:58;160303.56;;;20.13;36.96
7940;BME280;4015;48.888;9.226;2023-03-02T13:35:27;160525.91;;;21.01;35.92
7940;BME280;4015;48.888;9.226;2023-03-02T13:37:55;160450.06;;;20.71;36.70
7940;BME280;4015;48.888;9.226;2023-03-02T13:42:47;160402.53;;;20.52;36.04
7940;BME280;4015;48.888;9.226;2023-03-02T13:45:25;160289.41;;;20.07;36.42
7940;BME280;4015;48.888;9.226;2023-03-02T13:47:52;160351.09;;;20.32;36.67
7940;BME280;4015;48.888;9.226;2023-03-02T13:50:29;160135.25;;;19.46;38.26
7940;BME280;4015;48.888;9.226;2023-03-02T13:52:57;160029.94;;;19.04;38.53
7940;BME280;4015;48.888;9.226;2023-03-02T13:55:26;160182.81;;;19.65;37.59
7940;BME280;4015;48.888;9.226;2023-03-02T13:57:52;160267.56;;;19.99;37.44
7940;BME280;4015;48.888;9.226;2023-03-02T14:00:21;159973.47;;;18.82;39.01
7940;BME280;4015;48.888;9.226;2023-03-02T14:02:48;160026.09;;;19.03;38.67
7940;BME280;4015;48.888;9.226;2023-03-02T14:05:20;160128.84;;;19.44;38.44
7940;BME280;4015;48.888;9.226;2023-03-02T14:07:46;160250.84;;;19.92;37.47
7940;BME280;4015;48.888;9.226;2023-03-02T14:10:16;160289.41;;;20.07;37.33
7940;BME280;4015;48.888;9.226;2023-03-02T14:12:52;160077.44;;;19.23;38.14
7940;BME280;4015;48.888;9.226;2023-03-02T14:15:18;160077.44;;;19.23;38.50
7940;BME280;4015;48.888;9.226;2023-03-02T14:17:43;160095.47;;;19.30;38.72
7940;BME280;4015;48.888;9.226;2023-03-02T14:20:12;160253.47;;;19.93;37.69